Bataguassu, Brazil
Current Conditions -  °F | °C
As of 7:00 AM on Wednesday 26 Nov 2014 (Local Time) from SBDN Reporting Station
Rain Showers Rain Showers  
Wind Chill: 72°   Ceiling: 500
Heat Index: 72°   Visibility: 6mi
Dew Point: 70°   Wind: 5mph
Humidity: 94%   Direction: 340°NNW
Pressure: 29.8"   Gusts: NA
Location:  21.71°S, 52.42°W
Report Text: SBDN 261000Z 34004KT 9999 VCSH SCT002 OVC005 22/21 Q1009
Loading
Personal Weather Stations






























Interactive Weather Map New forecast layout! Learn more

10-Day Weather Forecast

Advertisements
Track Severe Weather on mobile